Terminal Aerodrome Forecast
Issued by NWS Buffalo, NY

Home | Current Version | Previous Version | Text Only | Print | Product List | Glossary On
Versions: 1 2 3 4 5 6 7 8 9 10 11 12 13 14 15 16 17 18 19 20 21 22 23
000
FTUS41 KBUF 252300
TAFROC
TAF
KROC 252338Z 2600/2624 27016KT P6SM VCSH OVC025
     FM260100 26008KT P6SM BKN050
     FM260500 VRB05KT P6SM BKN200
     FM261800 03008KT 5SM -SN OVC025=

USA.gov is the U.S. government's official web portal to all federal, state and local government web resources and services.